createdAt,value
2018-11-21T00:00:24.224Z,14.70
2018-11-21T00:02:54.593Z,14.80
2018-11-21T00:05:24.379Z,14.70
2018-11-21T00:07:54.300Z,14.70
2018-11-21T00:10:24.201Z,14.70
2018-11-21T00:12:55.644Z,14.50
2018-11-21T00:15:25.698Z,14.50
2018-11-21T00:17:55.915Z,14.50
2018-11-21T00:20:25.864Z,14.40
2018-11-21T00:22:55.837Z,14.40
2018-11-21T00:25:25.924Z,14.40
2018-11-21T00:27:56.051Z,14.30
2018-11-21T00:30:25.844Z,14.20
2018-11-21T00:32:55.699Z,14.20
2018-11-21T00:35:25.726Z,14.30
2018-11-21T00:37:56.021Z,14.30
2018-11-21T00:40:25.651Z,14.20
2018-11-21T00:42:55.745Z,14.20
2018-11-21T00:45:25.671Z,14.20
2018-11-21T00:47:55.438Z,14.20
2018-11-21T00:50:25.185Z,14.10
2018-11-21T00:52:55.284Z,14.10
2018-11-21T00:55:25.344Z,14.20
2018-11-21T00:57:55.207Z,14.30
2018-11-21T01:00:25.538Z,14.20
2018-11-21T01:02:55.370Z,14.10
2018-11-21T01:05:25.281Z,14.00
2018-11-21T01:07:55.248Z,14.00
2018-11-21T01:10:25.243Z,14.10
2018-11-21T01:12:55.258Z,14.10
2018-11-21T01:15:25.097Z,14.20
2018-11-21T01:17:54.857Z,14.20
2018-11-21T01:20:24.833Z,14.20
2018-11-21T01:22:55.039Z,14.20
2018-11-21T01:25:25.219Z,14.30
2018-11-21T01:28:43.389Z,14.20
2018-11-21T01:31:13.444Z,14.30
2018-11-21T01:33:43.104Z,14.20
2018-11-21T01:36:12.924Z,14.10
2018-11-21T01:38:42.683Z,14.10
2018-11-21T01:41:13.104Z,14.10
2018-11-21T01:43:43.154Z,14.10
2018-11-21T01:46:12.963Z,14.20
2018-11-21T01:48:42.960Z,14.20
2018-11-21T01:51:12.804Z,14.30
2018-11-21T01:53:43.599Z,14.30
2018-11-21T01:56:13.454Z,14.20
2018-11-21T01:58:43.684Z,14.30
2018-11-21T02:01:13.634Z,14.30
2018-11-21T02:03:43.429Z,14.30
2018-11-21T02:06:13.309Z,14.20
2018-11-21T02:08:43.269Z,14.20
2018-11-21T02:11:13.354Z,14.10
2018-11-21T02:13:43.673Z,14.00
2018-11-21T02:16:13.430Z,13.90
2018-11-21T02:18:43.299Z,13.80
2018-11-21T02:21:13.770Z,13.80
2018-11-21T02:23:44.034Z,13.70
2018-11-21T02:26:13.805Z,13.70
2018-11-21T02:28:44.604Z,13.60
2018-11-21T02:31:14.554Z,13.60
2018-11-21T02:33:44.290Z,13.60
2018-11-21T02:36:14.294Z,13.50
2018-11-21T02:38:44.399Z,13.50
2018-11-21T02:41:14.379Z,13.50
2018-11-21T02:43:44.644Z,13.50
2018-11-21T02:46:14.905Z,13.60
2018-11-21T02:48:44.768Z,13.60
2018-11-21T02:51:15.011Z,13.50
2018-11-21T02:53:44.744Z,13.50
2018-11-21T02:56:14.714Z,13.50
2018-11-21T02:58:45.054Z,13.50
2018-11-21T03:01:15.209Z,13.50
2018-11-21T03:03:45.141Z,13.50
2018-11-21T03:06:15.163Z,13.50
2018-11-21T03:08:44.913Z,13.40
2018-11-21T03:11:14.905Z,13.40
2018-11-21T03:13:44.819Z,13.40
2018-11-21T03:16:14.905Z,13.40
2018-11-21T03:18:44.634Z,13.40
2018-11-21T03:21:14.788Z,13.30
2018-11-21T03:23:44.485Z,13.30
2018-11-21T03:26:14.233Z,13.40
2018-11-21T03:28:44.299Z,13.30
2018-11-21T03:31:14.099Z,13.30
2018-11-21T03:33:44.215Z,13.40
2018-11-21T03:36:14.164Z,13.40
2018-11-21T03:38:43.945Z,13.30
2018-11-21T03:41:13.749Z,13.30
2018-11-21T03:43:46.245Z,13.30
2018-11-21T03:46:16.349Z,13.30
2018-11-21T03:48:46.535Z,13.20
2018-11-21T03:51:16.169Z,13.20
2018-11-21T03:53:46.394Z,13.20
2018-11-21T03:56:16.268Z,13.20
2018-11-21T03:58:46.058Z,13.20
2018-11-21T04:01:16.734Z,13.20
2018-11-21T04:03:46.949Z,13.10
2018-11-21T04:06:16.792Z,13.20
2018-11-21T04:08:48.654Z,13.10
2018-11-21T04:11:18.769Z,13.10
2018-11-21T04:13:48.769Z,13.10
2018-11-21T04:16:18.749Z,13.10
2018-11-21T04:18:52.585Z,13.10
2018-11-21T04:21:22.519Z,13.10
2018-11-21T04:23:52.343Z,13.10
2018-11-21T04:26:25.175Z,13.10
2018-11-21T04:28:57.583Z,13.20
2018-11-21T04:31:27.848Z,13.10
2018-11-21T04:33:58.210Z,13.10
2018-11-21T04:36:28.364Z,13.20
2018-11-21T04:39:00.788Z,13.20
2018-11-21T04:41:31.004Z,13.20
2018-11-21T04:44:01.396Z,13.20
2018-11-21T04:46:31.150Z,13.30
2018-11-21T04:49:01.409Z,13.40
2018-11-21T04:51:31.303Z,13.50
2018-11-21T04:54:01.199Z,13.60
2018-11-21T04:56:31.089Z,13.60
2018-11-21T04:59:01.360Z,13.70
2018-11-21T05:01:31.379Z,13.70
2018-11-21T05:04:01.570Z,13.70
2018-11-21T05:06:31.655Z,13.70
2018-11-21T05:09:01.479Z,13.70
2018-11-21T05:11:31.479Z,13.70
2018-11-21T05:14:01.444Z,13.80
2018-11-21T05:16:31.633Z,13.70
2018-11-21T05:19:01.908Z,13.80
2018-11-21T05:21:32.079Z,13.90
2018-11-21T05:24:05.829Z,13.90
2018-11-21T05:26:35.984Z,13.90
2018-11-21T05:29:05.739Z,14.00
2018-11-21T05:31:35.810Z,14.00
2018-11-21T05:34:07.475Z,14.00
2018-11-21T05:36:37.209Z,14.10
2018-11-21T05:39:10.909Z,14.10
2018-11-21T05:41:41.049Z,14.20
2018-11-21T05:44:10.970Z,14.30
2018-11-21T05:46:40.883Z,14.40
2018-11-21T05:49:11.259Z,14.50
2018-11-21T05:51:41.137Z,14.60
2018-11-21T05:54:11.265Z,14.60
2018-11-21T05:56:41.164Z,14.70
2018-11-21T05:59:11.334Z,14.80
2018-11-21T06:01:41.509Z,14.80
2018-11-21T06:04:11.504Z,14.90
2018-11-21T06:06:42.447Z,15.00
2018-11-21T06:09:13.570Z,15.00
2018-11-21T06:11:44.110Z,15.10
2018-11-21T06:14:13.959Z,15.20
2018-11-21T06:16:43.784Z,15.20
2018-11-21T06:19:14.179Z,15.30
2018-11-21T06:21:44.017Z,15.40
2018-11-21T06:24:13.819Z,15.50
2018-11-21T06:26:43.749Z,15.60
2018-11-21T06:29:13.825Z,15.70
2018-11-21T06:31:43.580Z,15.70
2018-11-21T06:34:13.712Z,15.80
2018-11-21T06:36:43.619Z,15.80
2018-11-21T06:39:13.464Z,15.90
2018-11-21T06:41:43.561Z,15.90
2018-11-21T06:44:13.399Z,16.00
2018-11-21T06:46:43.964Z,16.10
2018-11-21T06:49:14.605Z,16.20
2018-11-21T06:51:44.619Z,16.30
2018-11-21T06:54:15.498Z,16.30
2018-11-21T06:56:45.434Z,16.40
2018-11-21T06:59:15.644Z,16.50
2018-11-21T07:01:45.825Z,16.50
2018-11-21T07:04:15.679Z,16.60
2018-11-21T07:06:45.564Z,16.60
2018-11-21T07:09:15.675Z,16.70
2018-11-21T07:11:46.888Z,16.80
2018-11-21T07:14:15.525Z,16.90
2018-11-21T07:16:45.365Z,17.10
2018-11-21T07:19:15.630Z,17.30
2018-11-21T07:21:45.454Z,17.50
2018-11-21T07:24:15.639Z,17.60
2018-11-21T07:26:45.749Z,17.70
2018-11-21T07:29:15.573Z,17.70
2018-11-21T07:31:45.393Z,17.60
2018-11-21T07:34:15.679Z,17.50
2018-11-21T07:36:54.708Z,17.60
2018-11-21T07:39:24.900Z,17.60
2018-11-21T07:41:55.425Z,17.60
2018-11-21T07:44:25.184Z,17.70
2018-11-21T07:46:55.359Z,17.80
2018-11-21T07:49:25.179Z,17.80
2018-11-21T07:51:55.345Z,18.00
2018-11-21T07:54:25.299Z,18.10
2018-11-21T07:57:47.244Z,18.00
2018-11-21T08:01:00.290Z,18.00
2018-11-21T08:03:32.161Z,18.10
2018-11-21T08:06:08.504Z,18.10
2018-11-21T08:08:55.674Z,18.30
2018-11-21T08:11:43.329Z,18.30
2018-11-21T08:14:30.494Z,18.30
2018-11-21T08:17:25.343Z,18.40
2018-11-21T08:20:19.984Z,18.60
2018-11-21T08:23:11.824Z,18.50
2018-11-21T08:26:04.629Z,18.50
2018-11-21T08:28:35.267Z,18.10
2018-11-21T08:31:12.414Z,17.90
2018-11-21T08:33:42.269Z,17.70
2018-11-21T08:36:12.464Z,17.80
2018-11-21T08:38:42.684Z,17.70
2018-11-21T08:41:12.935Z,17.50
2018-11-21T08:43:42.929Z,17.50
2018-11-21T08:46:13.280Z,17.50
2018-11-21T08:48:43.565Z,17.60
2018-11-21T08:51:13.739Z,17.50
2018-11-21T08:53:43.844Z,17.50
2018-11-21T08:56:13.645Z,17.50
2018-11-21T08:58:44.732Z,17.50
2018-11-21T09:01:14.715Z,17.50
2018-11-21T09:03:44.949Z,17.40
2018-11-21T09:06:15.015Z,17.50
2018-11-21T09:08:44.744Z,17.60
2018-11-21T09:11:15.114Z,17.70
2018-11-21T09:13:44.895Z,17.70
2018-11-21T09:16:15.244Z,17.90
2018-11-21T09:18:45.227Z,18.00
2018-11-21T09:21:15.143Z,18.00
2018-11-21T09:23:45.096Z,18.00
2018-11-21T09:26:14.859Z,18.00
2018-11-21T09:28:45.274Z,18.10
2018-11-21T09:31:15.174Z,18.00
2018-11-21T09:33:44.990Z,18.00
2018-11-21T09:36:15.040Z,17.90
2018-11-21T09:38:44.845Z,18.10
2018-11-21T09:41:14.679Z,18.10
2018-11-21T09:43:44.570Z,18.20
2018-11-21T09:46:17.279Z,18.30
2018-11-21T09:48:44.670Z,18.40
2018-11-21T09:51:17.849Z,18.30
2018-11-21T09:53:47.898Z,18.30
2018-11-21T09:56:17.950Z,18.40
2018-11-21T09:58:48.144Z,18.60
2018-11-21T10:01:54.444Z,18.60
2018-11-21T10:04:24.693Z,18.60
2018-11-21T10:06:54.492Z,18.60
2018-11-21T10:09:27.273Z,18.50
2018-11-21T10:11:57.509Z,18.60
2018-11-21T10:14:27.279Z,18.80
2018-11-21T10:16:57.271Z,18.80
2018-11-21T10:19:30.082Z,18.90
2018-11-21T10:21:59.948Z,18.80
2018-11-21T10:24:30.444Z,18.60
2018-11-21T10:27:00.509Z,18.70
2018-11-21T10:29:30.939Z,18.80
2018-11-21T10:32:00.904Z,18.70
2018-11-21T10:34:31.186Z,18.70
2018-11-21T10:37:01.305Z,18.80
2018-11-21T10:39:31.276Z,18.60
2018-11-21T10:42:01.280Z,18.60
2018-11-21T10:44:31.284Z,18.70
2018-11-21T10:47:02.999Z,18.60
2018-11-21T10:49:33.099Z,18.60
2018-11-21T10:52:02.914Z,18.50
2018-11-21T10:54:32.979Z,18.50
2018-11-21T10:57:03.441Z,18.50
2018-11-21T10:59:33.526Z,18.40
2018-11-21T11:02:20.739Z,18.50
2018-11-21T11:05:15.760Z,18.60
2018-11-21T11:08:08.334Z,18.70
2018-11-21T11:11:12.486Z,18.70
2018-11-21T11:14:07.489Z,18.70
2018-11-21T11:16:54.952Z,18.90
2018-11-21T11:19:54.134Z,18.80
2018-11-21T11:22:42.879Z,18.60
2018-11-21T11:25:46.795Z,18.60
2018-11-21T11:28:43.259Z,18.50
2018-11-21T11:31:44.236Z,18.40
2018-11-21T11:34:31.264Z,18.20
2018-11-21T11:37:22.699Z,18.20
2018-11-21T11:40:09.814Z,18.30
2018-11-21T11:42:58.997Z,18.20
2018-11-21T11:46:05.955Z,18.20
2018-11-21T11:48:58.491Z,18.10
2018-11-21T11:51:50.345Z,18.10
2018-11-21T11:54:42.328Z,18.00
2018-11-21T11:57:40.593Z,18.00
2018-11-21T12:00:21.324Z,17.90
2018-11-21T12:03:13.268Z,17.60
2018-11-21T12:06:00.460Z,17.60
2018-11-21T12:08:52.683Z,17.50
2018-11-21T12:11:59.141Z,17.50
2018-11-21T12:14:36.022Z,17.30
2018-11-21T12:17:25.549Z,17.40
2018-11-21T12:20:20.874Z,17.50
2018-11-21T12:23:08.444Z,17.50
2018-11-21T12:25:56.380Z,17.50
2018-11-21T12:28:40.812Z,17.50
2018-11-21T12:31:26.235Z,17.50
2018-11-21T12:34:14.349Z,17.40
2018-11-21T12:37:01.590Z,17.40
2018-11-21T12:39:50.553Z,17.40
2018-11-21T12:42:40.775Z,17.40
2018-11-21T12:45:42.025Z,17.40
2018-11-21T12:48:29.884Z,17.50
2018-11-21T12:51:18.998Z,17.50
2018-11-21T12:54:13.333Z,17.40
2018-11-21T12:57:17.483Z,17.40
2018-11-21T13:00:05.427Z,17.40
2018-11-21T13:02:56.948Z,17.40
2018-11-21T13:05:51.339Z,17.50
2018-11-21T13:08:42.449Z,17.40
2018-11-21T13:11:45.259Z,17.30
2018-11-21T13:14:42.811Z,17.30
2018-11-21T13:17:37.323Z,17.30
2018-11-21T13:20:45.239Z,17.30
2018-11-21T13:23:24.534Z,17.30
2018-11-21T13:26:19.099Z,17.20
2018-11-21T13:29:24.940Z,17.20
2018-11-21T13:32:16.699Z,17.20
2018-11-21T13:34:53.143Z,17.10
2018-11-21T13:37:50.893Z,17.10
2018-11-21T13:40:40.214Z,17.10
2018-11-21T13:43:39.438Z,17.10
2018-11-21T13:46:29.469Z,17.00
2018-11-21T13:49:18.839Z,17.00
2018-11-21T13:52:07.484Z,16.90
2018-11-21T13:55:02.464Z,16.80
2018-11-21T13:57:32.764Z,16.70
2018-11-21T14:00:03.564Z,16.70
2018-11-21T14:02:33.424Z,16.60
2018-11-21T14:05:03.324Z,16.60
2018-11-21T14:07:33.853Z,16.60
2018-11-21T14:10:04.179Z,16.50
2018-11-21T14:12:34.103Z,16.50
2018-11-21T14:15:04.053Z,16.50
2018-11-21T14:17:33.918Z,16.40
2018-11-21T14:20:04.009Z,16.40
2018-11-21T14:22:33.915Z,16.40
2018-11-21T14:25:04.234Z,16.40
2018-11-21T14:27:34.294Z,16.40
2018-11-21T14:30:05.001Z,16.30
2018-11-21T14:32:36.914Z,16.30
2018-11-21T14:35:10.178Z,16.30
2018-11-21T14:37:40.054Z,16.20
2018-11-21T14:40:12.714Z,16.20
2018-11-21T14:42:42.893Z,16.20
2018-11-21T14:45:14.739Z,16.20
2018-11-21T14:47:46.791Z,16.10
2018-11-21T14:50:25.604Z,16.20
2018-11-21T14:52:55.413Z,16.10
2018-11-21T14:55:25.488Z,16.10
2018-11-21T14:57:57.913Z,16.10
2018-11-21T15:00:28.331Z,16.10
2018-11-21T15:02:58.829Z,16.00
2018-11-21T15:05:28.743Z,16.00
2018-11-21T15:08:00.157Z,16.00
2018-11-21T15:10:30.804Z,16.00
2018-11-21T15:13:04.714Z,16.00
2018-11-21T15:15:34.724Z,16.00
2018-11-21T15:18:04.909Z,15.90
2018-11-21T15:20:34.809Z,15.90
2018-11-21T15:23:05.644Z,15.90
2018-11-21T15:25:36.273Z,15.90
2018-11-21T15:28:06.569Z,15.90
2018-11-21T15:30:36.509Z,15.90
2018-11-21T15:33:07.174Z,15.90
2018-11-21T15:35:37.534Z,15.80
2018-11-21T15:38:07.909Z,15.80
2018-11-21T15:40:39.368Z,15.70
2018-11-21T15:43:09.618Z,15.80
2018-11-21T15:45:40.052Z,15.70
2018-11-21T15:48:10.295Z,15.70
2018-11-21T15:50:40.514Z,15.70
2018-11-21T15:53:10.614Z,15.70
2018-11-21T15:55:40.649Z,15.80
2018-11-21T15:58:10.545Z,15.80
2018-11-21T16:00:40.649Z,15.70
2018-11-21T16:03:11.924Z,15.70
2018-11-21T16:05:41.798Z,15.70
2018-11-21T16:08:11.670Z,15.70
2018-11-21T16:10:43.339Z,15.70
2018-11-21T16:13:13.194Z,15.70
2018-11-21T16:15:51.082Z,15.70
2018-11-21T16:18:23.324Z,15.70
2018-11-21T16:20:53.191Z,15.70
2018-11-21T16:23:23.268Z,15.70
2018-11-21T16:25:53.019Z,15.70
2018-11-21T16:28:23.169Z,15.70
2018-11-21T16:30:53.146Z,15.70
2018-11-21T16:33:23.150Z,15.60
2018-11-21T16:35:53.315Z,15.60
2018-11-21T16:38:23.845Z,15.50
2018-11-21T16:40:54.179Z,15.50
2018-11-21T16:43:24.966Z,15.50
2018-11-21T16:45:56.844Z,15.50
2018-11-21T16:48:26.674Z,15.50
2018-11-21T16:50:56.489Z,15.50
2018-11-21T16:53:26.688Z,15.50
2018-11-21T16:55:58.828Z,15.40
2018-11-21T16:58:29.115Z,15.30
2018-11-21T17:00:59.594Z,15.30
2018-11-21T17:03:28.803Z,15.30
2018-11-21T17:05:59.079Z,15.20
2018-11-21T17:08:29.294Z,15.20
2018-11-21T17:10:59.519Z,15.20
2018-11-21T17:13:29.360Z,15.10
2018-11-21T17:15:59.657Z,15.10
2018-11-21T17:18:30.074Z,15.10
2018-11-21T17:20:59.880Z,15.10
2018-11-21T17:23:29.800Z,15.10
2018-11-21T17:25:59.889Z,15.10
2018-11-21T17:28:30.403Z,15.10
2018-11-21T17:31:00.333Z,15.10
2018-11-21T17:33:30.721Z,15.10
2018-11-21T17:36:00.540Z,15.00
2018-11-21T17:38:33.612Z,15.00
2018-11-21T17:41:00.596Z,15.00
2018-11-21T17:43:30.955Z,15.00
2018-11-21T17:46:04.080Z,14.90
2018-11-21T17:48:33.529Z,15.00
2018-11-21T17:51:04.597Z,14.90
2018-11-21T17:53:34.764Z,14.90
2018-11-21T17:56:04.558Z,14.90
2018-11-21T17:58:34.314Z,15.00
2018-11-21T18:01:04.415Z,15.00
2018-11-21T18:03:34.679Z,15.00
2018-11-21T18:06:04.894Z,14.90
2018-11-21T18:08:37.744Z,14.90
2018-11-21T18:11:07.721Z,14.90
2018-11-21T18:13:37.473Z,14.90
2018-11-21T18:16:07.988Z,15.00
2018-11-21T18:18:38.325Z,15.00
2018-11-21T18:21:08.155Z,15.00
2018-11-21T18:23:39.075Z,15.00
2018-11-21T18:26:08.933Z,15.00
2018-11-21T18:28:39.408Z,14.90
2018-11-21T18:31:09.575Z,14.90
2018-11-21T18:33:39.614Z,14.90
2018-11-21T18:36:09.648Z,14.80
2018-11-21T18:38:39.992Z,14.80
2018-11-21T18:41:11.360Z,14.80
2018-11-21T18:43:41.368Z,14.70
2018-11-21T18:46:11.181Z,14.70
2018-11-21T18:48:40.978Z,14.70
2018-11-21T18:51:11.169Z,14.80
2018-11-21T18:53:41.524Z,14.70
2018-11-21T18:56:35.908Z,14.70
2018-11-21T18:59:16.002Z,14.80
2018-11-21T19:01:46.782Z,14.80
2018-11-21T19:04:16.119Z,14.70
2018-11-21T19:06:46.303Z,14.60
2018-11-21T19:09:16.925Z,14.60
2018-11-21T19:11:46.750Z,14.70
2018-11-21T19:14:16.629Z,14.70
2018-11-21T19:16:46.524Z,14.70
2018-11-21T19:19:16.439Z,14.70
2018-11-21T19:21:46.720Z,14.70
2018-11-21T19:24:17.036Z,14.80
2018-11-21T19:26:47.694Z,14.80
2018-11-21T19:29:17.949Z,14.70
2018-11-21T19:31:47.964Z,14.80
2018-11-21T19:34:17.819Z,14.70
2018-11-21T19:36:48.094Z,14.80
2018-11-21T19:39:18.273Z,14.80
2018-11-21T19:41:48.269Z,14.90
2018-11-21T19:44:18.264Z,14.80
2018-11-21T19:46:48.490Z,14.80
2018-11-21T19:49:18.296Z,14.80
2018-11-21T19:51:48.609Z,14.70
2018-11-21T19:54:18.793Z,14.80
2018-11-21T19:56:48.954Z,14.80
2018-11-21T19:59:29.715Z,14.80
2018-11-21T20:01:59.550Z,14.90
2018-11-21T20:04:29.747Z,14.90
2018-11-21T20:06:59.585Z,15.00
2018-11-21T20:09:32.564Z,15.00
2018-11-21T20:12:02.853Z,15.00
2018-11-21T20:14:32.694Z,15.00
2018-11-21T20:17:03.041Z,15.00
2018-11-21T20:19:32.794Z,15.00
2018-11-21T20:22:02.745Z,15.00
2018-11-21T20:24:32.681Z,14.90
2018-11-21T20:27:02.648Z,14.90
2018-11-21T20:29:32.679Z,14.90
2018-11-21T20:32:03.526Z,14.80
2018-11-21T20:34:33.316Z,14.80
2018-11-21T20:37:03.319Z,14.90
2018-11-21T20:39:33.199Z,14.90
2018-11-21T20:42:03.349Z,14.90
2018-11-21T20:44:33.363Z,14.90
2018-11-21T20:47:03.814Z,14.90
2018-11-21T20:49:33.964Z,14.80
2018-11-21T20:52:06.933Z,14.80
2018-11-21T20:54:37.024Z,14.90
2018-11-21T20:57:07.285Z,14.90
2018-11-21T20:59:37.429Z,14.90
2018-11-21T21:02:07.339Z,14.90
2018-11-21T21:04:37.478Z,15.00
2018-11-21T21:07:07.590Z,14.90
2018-11-21T21:09:37.884Z,14.90
2018-11-21T21:12:08.884Z,14.90
2018-11-21T21:14:38.804Z,14.90
2018-11-21T21:17:08.744Z,14.80
2018-11-21T21:19:40.515Z,14.80
2018-11-21T21:22:10.405Z,14.80
2018-11-21T21:24:40.322Z,14.80
2018-11-21T21:27:10.254Z,14.80
2018-11-21T21:29:43.419Z,14.80
2018-11-21T21:32:13.393Z,14.80
2018-11-21T21:34:43.463Z,14.80
2018-11-21T21:37:13.386Z,14.80
2018-11-21T21:39:43.284Z,14.80
2018-11-21T21:42:13.224Z,14.70
2018-11-21T21:44:44.423Z,14.70
2018-11-21T21:47:14.968Z,14.60
2018-11-21T21:49:46.009Z,14.60
2018-11-21T21:52:15.933Z,14.60
2018-11-21T21:54:45.750Z,14.60
2018-11-21T21:57:15.704Z,14.50
2018-11-21T21:59:45.544Z,14.50
2018-11-21T22:02:15.839Z,14.50
2018-11-21T22:04:45.654Z,14.50
2018-11-21T22:07:15.744Z,14.50
2018-11-21T22:12:16.953Z,14.50
2018-11-21T22:14:47.012Z,14.50
2018-11-21T22:17:17.099Z,14.50
2018-11-21T22:19:46.990Z,14.60
2018-11-21T22:22:16.840Z,14.50
2018-11-21T22:24:46.945Z,14.50
2018-11-21T22:27:18.199Z,14.40
2018-11-21T22:29:48.024Z,14.30
2018-11-21T22:32:17.914Z,14.30
2018-11-21T22:34:48.179Z,14.30
2018-11-21T22:37:18.039Z,14.20
2018-11-21T22:39:47.871Z,14.20
2018-11-21T22:42:18.124Z,14.20
2018-11-21T22:44:48.174Z,14.20
2018-11-21T22:47:21.674Z,14.10
2018-11-21T22:49:51.895Z,14.10
2018-11-21T22:52:21.749Z,14.30
2018-11-21T22:54:51.783Z,14.20
2018-11-21T22:57:21.874Z,14.20
2018-11-21T22:59:51.705Z,14.20
2018-11-21T23:02:21.655Z,14.20
2018-11-21T23:04:51.493Z,14.20
2018-11-21T23:07:21.465Z,14.20
2018-11-21T23:09:51.764Z,14.20
2018-11-21T23:12:21.564Z,14.20
2018-11-21T23:14:52.161Z,14.10
2018-11-21T23:17:21.989Z,14.20
2018-11-21T23:19:52.249Z,14.20
2018-11-21T23:22:22.024Z,14.30
2018-11-21T23:24:51.949Z,14.20
2018-11-21T23:27:22.029Z,14.20
2018-11-21T23:29:52.695Z,14.20
2018-11-21T23:32:22.649Z,14.20
2018-11-21T23:34:52.939Z,14.20
2018-11-21T23:37:22.989Z,14.30
2018-11-21T23:39:53.004Z,14.20
2018-11-21T23:42:22.789Z,14.20
2018-11-21T23:44:52.870Z,14.20
2018-11-21T23:47:23.259Z,14.20
2018-11-21T23:49:53.044Z,14.20
2018-11-21T23:52:24.624Z,14.20
2018-11-21T23:54:54.804Z,14.30
2018-11-21T23:57:24.943Z,14.30
2018-11-21T23:59:54.655Z,14.30
